createdAt,value
2022-07-29T00:04:01.663Z,101159.06
2022-07-29T00:08:59.183Z,101170.38
2022-07-29T00:13:55.981Z,101173.28
2022-07-29T00:18:52.609Z,101181.31
2022-07-29T00:23:49.270Z,101176.25
2022-07-29T00:28:46.660Z,101175.97
2022-07-29T00:33:43.333Z,101179.69
2022-07-29T00:38:41.964Z,101178.78
2022-07-29T00:43:38.744Z,101174.53
2022-07-29T00:48:36.160Z,101173.81
2022-07-29T00:53:32.837Z,101170.16
2022-07-29T00:58:29.552Z,101172.13
2022-07-29T01:03:26.409Z,101167.78
2022-07-29T01:08:24.190Z,101170.16
2022-07-29T01:13:21.741Z,101169.88
2022-07-29T01:18:23.159Z,101165.59
2022-07-29T01:23:39.685Z,101164.13
2022-07-29T01:28:56.979Z,101160.47
2022-07-29T01:33:56.583Z,101153.69
2022-07-29T01:38:55.661Z,101149.75
2022-07-29T01:43:56.178Z,101152.63
2022-07-29T01:48:55.816Z,101163.63
2022-07-29T01:53:56.799Z,101156.09
2022-07-29T01:58:54.872Z,101164.19
2022-07-29T02:03:53.656Z,101155.59
2022-07-29T02:08:51.059Z,101157.44
2022-07-29T02:13:48.278Z,101156.44
2022-07-29T02:18:46.574Z,101155.31
2022-07-29T02:23:50.725Z,101150.03
2022-07-29T02:28:50.312Z,101152.03
2022-07-29T02:33:47.934Z,101147.19
2022-07-29T02:38:57.770Z,101156.28
2022-07-29T02:43:57.160Z,101148.34
2022-07-29T02:48:58.565Z,101160.53
2022-07-29T02:53:56.849Z,101166.00
2022-07-29T02:58:55.296Z,101175.38
2022-07-29T03:03:53.886Z,101174.56
2022-07-29T03:08:52.165Z,101169.41
2022-07-29T03:13:49.438Z,101187.22
2022-07-29T03:18:46.370Z,101193.13
2022-07-29T03:23:44.799Z,101192.38
2022-07-29T03:28:42.079Z,101187.06
2022-07-29T03:33:38.722Z,101172.69
2022-07-29T03:38:36.627Z,101183.41
2022-07-29T03:43:35.437Z,101188.97
2022-07-29T03:48:33.874Z,101191.28
2022-07-29T03:53:30.495Z,101191.25
2022-07-29T03:58:27.504Z,101201.19
2022-07-29T04:03:24.309Z,101205.38
2022-07-29T04:08:21.615Z,101202.84
2022-07-29T04:13:18.437Z,101205.72
2022-07-29T04:18:15.089Z,101207.44
2022-07-29T04:23:11.776Z,101216.00
2022-07-29T04:28:09.764Z,101208.00
2022-07-29T04:33:07.383Z,101213.63
2022-07-29T04:38:05.017Z,101226.41
2022-07-29T04:43:01.973Z,101220.50
2022-07-29T04:48:03.222Z,101220.69
2022-07-29T04:52:59.939Z,101223.00
2022-07-29T04:57:56.619Z,101215.69
2022-07-29T05:02:53.663Z,101231.16
2022-07-29T05:07:51.947Z,101238.72
2022-07-29T05:12:48.980Z,101232.72
2022-07-29T05:17:45.690Z,101234.53
2022-07-29T05:22:42.380Z,101227.38
2022-07-29T05:27:40.090Z,101243.00
2022-07-29T05:32:36.817Z,101241.88
2022-07-29T05:37:34.100Z,101243.66
2022-07-29T05:42:30.934Z,101239.50
2022-07-29T05:47:28.661Z,101236.69
2022-07-29T05:52:27.999Z,101242.03
2022-07-29T05:57:25.357Z,101243.88
2022-07-29T06:02:22.062Z,101239.13
2022-07-29T06:07:19.587Z,101241.44
2022-07-29T06:12:16.248Z,101237.69
2022-07-29T06:17:16.823Z,101235.25
2022-07-29T06:22:15.758Z,101233.38
2022-07-29T06:27:13.178Z,101241.41
2022-07-29T06:32:09.897Z,101228.69
2022-07-29T06:37:06.988Z,101239.78
2022-07-29T06:42:12.161Z,101236.09
2022-07-29T06:47:09.556Z,101248.19
2022-07-29T06:52:06.355Z,101247.38
2022-07-29T06:57:03.201Z,101246.91
2022-07-29T07:01:59.912Z,101244.63
2022-07-29T07:06:57.392Z,101248.97
2022-07-29T07:11:54.244Z,101241.53
2022-07-29T07:16:51.033Z,101233.69
2022-07-29T07:21:49.375Z,101236.16
2022-07-29T07:26:46.925Z,101242.06
2022-07-29T07:31:43.798Z,101226.19
2022-07-29T07:36:40.624Z,101226.34
2022-07-29T07:41:37.342Z,101222.97
2022-07-29T07:46:39.120Z,101225.53
2022-07-29T07:51:36.379Z,101223.88
2022-07-29T07:56:35.258Z,101227.47
2022-07-29T08:01:48.193Z,101227.31
2022-07-29T08:06:56.320Z,101220.34
2022-07-29T08:11:55.488Z,101217.16
2022-07-29T08:16:52.550Z,101216.25
2022-07-29T08:21:50.565Z,101224.84
2022-07-29T08:26:47.568Z,101222.25
2022-07-29T08:31:44.488Z,101222.09
2022-07-29T08:36:41.933Z,101202.59
2022-07-29T08:41:39.454Z,101202.34
2022-07-29T08:46:38.229Z,101206.25
2022-07-29T08:51:37.322Z,101197.50
2022-07-29T08:56:49.097Z,101183.69
2022-07-29T09:01:47.868Z,101179.41
2022-07-29T09:06:45.822Z,101179.16
2022-07-29T09:11:43.039Z,101171.69
2022-07-29T09:16:53.281Z,101167.03
2022-07-29T09:21:59.788Z,101165.03
2022-07-29T09:26:56.837Z,101154.13
2022-07-29T09:31:55.326Z,101172.00
2022-07-29T09:36:53.938Z,101173.78
2022-07-29T09:41:53.296Z,101168.03
2022-07-29T09:47:10.796Z,101164.91
2022-07-29T09:52:09.111Z,101159.84
2022-07-29T09:57:06.536Z,101142.72
2022-07-29T10:02:12.332Z,101141.97
2022-07-29T10:07:09.771Z,101150.81
2022-07-29T10:12:13.940Z,101136.09
2022-07-29T10:17:20.076Z,101140.56
2022-07-29T10:22:43.375Z,101127.41
2022-07-29T10:27:34.128Z,101129.88
2022-07-29T10:32:40.657Z,101124.13
2022-07-29T10:37:45.893Z,101126.41
2022-07-29T10:42:43.750Z,101120.72
2022-07-29T10:47:42.735Z,101110.09
2022-07-29T10:52:59.640Z,101106.63
2022-07-29T10:58:11.905Z,101103.78
2022-07-29T11:03:11.554Z,101104.13
2022-07-29T11:08:21.092Z,101087.88
2022-07-29T11:13:42.365Z,101080.94
2022-07-29T11:18:54.584Z,101057.47
2022-07-29T11:24:14.719Z,101071.81
2022-07-29T11:29:19.691Z,101059.22
2022-07-29T11:34:21.078Z,101055.31
2022-07-29T11:39:36.717Z,101050.81
2022-07-29T11:44:49.393Z,101037.28
2022-07-29T11:49:48.202Z,101052.91
2022-07-29T11:54:58.220Z,101042.50
2022-07-29T12:00:04.779Z,101036.38
2022-07-29T12:05:10.659Z,101036.91
2022-07-29T12:10:20.131Z,101026.47
2022-07-29T12:15:39.290Z,101025.03
2022-07-29T12:20:44.708Z,101016.44
2022-07-29T12:25:42.969Z,101009.41
2022-07-29T12:30:44.971Z,101004.66
2022-07-29T12:35:43.328Z,100999.19
2022-07-29T12:40:40.525Z,100990.50
2022-07-29T12:45:39.657Z,100978.09
2022-07-29T12:50:38.500Z,100972.50
2022-07-29T12:55:42.279Z,100969.53
2022-07-29T13:00:39.791Z,100969.66
2022-07-29T13:05:40.044Z,100969.03
2022-07-29T13:10:37.009Z,100955.63
2022-07-29T13:15:33.918Z,100938.47
2022-07-29T13:20:31.333Z,100952.13
2022-07-29T13:25:28.732Z,100945.91
2022-07-29T13:30:27.907Z,100940.78
2022-07-29T13:35:24.973Z,100946.72
2022-07-29T13:40:22.565Z,100942.56
2022-07-29T13:45:19.429Z,100935.78
2022-07-29T13:50:16.179Z,100922.13
2022-07-29T13:55:12.895Z,100915.09
2022-07-29T14:00:11.071Z,100919.97
2022-07-29T14:05:08.976Z,100910.63
2022-07-29T14:10:06.548Z,100911.66
2022-07-29T14:15:03.746Z,100913.28
2022-07-29T14:20:03.327Z,100917.34
2022-07-29T14:25:01.500Z,100913.59
2022-07-29T14:30:08.182Z,100906.44
2022-07-29T14:35:06.722Z,100909.63
2022-07-29T14:40:04.420Z,100908.06
2022-07-29T14:45:01.206Z,100914.09
2022-07-29T14:49:58.010Z,100915.91
2022-07-29T14:54:55.328Z,100913.63
2022-07-29T14:59:52.308Z,100901.69
2022-07-29T15:04:49.083Z,100905.84
2022-07-29T15:09:49.955Z,100896.25
2022-07-29T15:14:47.871Z,100897.16
2022-07-29T15:19:44.995Z,100902.91
2022-07-29T15:24:41.890Z,100881.97
2022-07-29T15:29:38.599Z,100862.00
2022-07-29T15:34:36.380Z,100870.38
2022-07-29T15:39:33.240Z,100870.88
2022-07-29T15:44:30.002Z,100863.53
2022-07-29T15:49:46.507Z,100867.66
2022-07-29T15:54:46.137Z,100867.44
2022-07-29T15:59:42.737Z,100859.16
2022-07-29T16:04:39.576Z,100869.81
2022-07-29T16:09:36.301Z,100875.25
2022-07-29T16:14:33.761Z,100871.94
2022-07-29T16:19:30.650Z,100875.16
2022-07-29T16:24:29.289Z,100882.31
2022-07-29T16:29:26.046Z,100886.63
2022-07-29T16:34:23.627Z,100889.38
2022-07-29T16:39:20.273Z,100896.50
2022-07-29T16:44:16.875Z,100896.16
2022-07-29T16:49:19.279Z,100900.09
2022-07-29T16:54:17.223Z,100897.13
2022-07-29T16:59:13.935Z,100898.22
2022-07-29T17:04:11.440Z,100908.38
2022-07-29T17:09:09.715Z,100902.56
2022-07-29T17:14:07.100Z,100909.63
2022-07-29T17:19:05.914Z,100899.88
2022-07-29T17:24:02.723Z,100898.34
2022-07-29T17:28:59.574Z,100901.81
2022-07-29T17:34:00.100Z,100902.50
2022-07-29T17:38:57.583Z,100909.78
2022-07-29T17:43:54.570Z,100906.16
2022-07-29T17:48:51.339Z,100900.16
2022-07-29T17:53:48.741Z,100917.50
2022-07-29T17:58:46.790Z,100913.81
2022-07-29T18:03:44.020Z,100920.56
2022-07-29T18:08:40.801Z,100919.31
2022-07-29T18:13:38.596Z,100925.53
2022-07-29T18:18:35.570Z,100924.16
2022-07-29T18:23:32.313Z,100927.66
2022-07-29T18:28:29.075Z,100926.19
2022-07-29T18:33:26.580Z,100929.34
2022-07-29T18:38:23.310Z,100945.44
2022-07-29T18:43:20.298Z,100945.41
2022-07-29T18:48:16.920Z,100947.31
2022-07-29T18:53:14.988Z,100946.63
2022-07-29T18:58:11.717Z,100957.81
2022-07-29T19:03:09.068Z,100961.84
2022-07-29T19:08:07.631Z,100974.78
2022-07-29T19:13:06.550Z,100987.78
2022-07-29T19:18:03.981Z,100999.41
2022-07-29T19:23:02.186Z,100998.97
2022-07-29T19:27:59.013Z,101002.41
2022-07-29T19:32:56.519Z,101001.28
2022-07-29T19:37:53.649Z,101004.16
2022-07-29T19:42:51.097Z,101005.69
2022-07-29T19:47:50.985Z,101002.50
2022-07-29T19:52:48.457Z,100998.28
2022-07-29T19:57:54.399Z,100995.94
2022-07-29T20:02:53.487Z,100993.41
2022-07-29T20:07:53.402Z,100995.91
2022-07-29T20:12:50.208Z,100995.22
2022-07-29T20:17:55.167Z,100998.72
2022-07-29T20:22:54.493Z,101003.88
2022-07-29T20:27:52.036Z,100999.94
2022-07-29T20:32:50.743Z,101000.81
2022-07-29T20:37:51.975Z,101012.03
2022-07-29T20:42:53.237Z,101000.06
2022-07-29T20:47:51.112Z,100991.25
2022-07-29T20:52:49.337Z,100996.88
2022-07-29T20:57:46.098Z,101000.72
2022-07-29T21:02:43.562Z,100998.47
2022-07-29T21:07:40.241Z,101001.38
2022-07-29T21:12:37.048Z,100995.63
2022-07-29T21:17:35.325Z,101010.34
2022-07-29T21:22:32.711Z,101013.03
2022-07-29T21:27:58.698Z,101019.44
2022-07-29T21:32:55.453Z,101032.34
2022-07-29T21:37:52.866Z,101030.78
2022-07-29T21:42:54.760Z,101036.28
2022-07-29T21:47:54.088Z,101033.22
2022-07-29T21:52:50.816Z,101007.59
2022-07-29T21:57:48.134Z,101031.06
2022-07-29T22:02:45.085Z,101041.44
2022-07-29T22:07:56.024Z,101060.03
2022-07-29T22:12:54.904Z,101061.72
2022-07-29T22:17:51.714Z,101054.81
2022-07-29T22:22:48.450Z,101048.56
2022-07-29T22:27:48.086Z,101047.88
2022-07-29T22:32:49.566Z,101042.44
2022-07-29T22:37:50.555Z,101036.34
2022-07-29T22:42:47.298Z,101034.66
2022-07-29T22:47:48.196Z,101037.50
2022-07-29T22:52:46.331Z,101044.22
2022-07-29T22:57:43.000Z,101053.91
2022-07-29T23:02:40.792Z,101042.06
2022-07-29T23:07:37.491Z,101060.47
2022-07-29T23:12:34.829Z,101051.22
2022-07-29T23:17:31.920Z,101057.72
2022-07-29T23:22:33.041Z,101049.56
2022-07-29T23:27:29.662Z,101052.50
2022-07-29T23:32:27.225Z,101049.09
2022-07-29T23:37:26.625Z,101057.13
2022-07-29T23:42:23.705Z,101050.16
2022-07-29T23:47:20.381Z,101056.56
2022-07-29T23:52:18.084Z,101057.22
2022-07-29T23:57:14.700Z,101074.31
